createdAt,value
2022-12-19T00:00:45.712Z,18631.19
2022-12-19T00:03:14.236Z,18627.13
2022-12-19T00:05:43.617Z,18651.50
2022-12-19T00:08:18.156Z,18633.22
2022-12-19T00:10:57.793Z,18616.97
2022-12-19T00:13:27.300Z,18645.41
2022-12-19T00:16:02.181Z,18643.38
2022-12-19T00:18:30.679Z,18643.38
2022-12-19T00:21:01.438Z,18647.44
2022-12-19T00:23:32.518Z,18639.31
2022-12-19T00:26:15.313Z,18627.13
2022-12-19T00:28:46.520Z,18641.34
2022-12-19T00:31:16.660Z,18594.63
2022-12-19T00:33:45.694Z,18616.97
2022-12-19T00:36:17.029Z,18637.28
2022-12-19T00:38:53.300Z,18621.03
2022-12-19T00:41:25.465Z,18616.97
2022-12-19T00:43:55.259Z,18645.41
2022-12-19T00:46:23.891Z,18625.09
2022-12-19T00:48:52.268Z,18623.06
2022-12-19T00:51:24.380Z,18621.03
2022-12-19T00:53:54.514Z,18604.78
2022-12-19T00:56:27.304Z,18612.91
2022-12-19T00:58:56.397Z,18651.50
2022-12-19T01:01:28.052Z,18602.75
2022-12-19T01:04:27.090Z,18631.19
2022-12-19T01:06:46.632Z,18598.69
2022-12-19T01:09:15.562Z,18657.59
2022-12-19T01:12:02.562Z,18647.44
2022-12-19T01:14:30.708Z,18653.53
2022-12-19T01:16:58.833Z,18665.72
2022-12-19T01:19:28.692Z,18639.31
2022-12-19T01:21:56.803Z,18649.47
2022-12-19T01:24:24.932Z,18619.00
2022-12-19T01:26:54.445Z,18671.81
2022-12-19T01:29:22.576Z,18614.94
2022-12-19T01:31:50.849Z,18623.06
2022-12-19T01:34:18.986Z,18625.09
2022-12-19T01:36:47.117Z,18623.06
2022-12-19T01:39:15.233Z,18619.00
2022-12-19T01:41:43.348Z,18639.31
2022-12-19T01:44:12.802Z,18610.88
2022-12-19T01:46:45.665Z,18649.47
2022-12-19T01:49:28.186Z,18625.09
2022-12-19T01:52:01.170Z,18602.75
2022-12-19T01:54:37.251Z,18614.94
2022-12-19T01:57:11.883Z,18659.63
2022-12-19T01:59:47.247Z,18661.66
2022-12-19T02:02:22.648Z,18657.59
2022-12-19T02:04:50.779Z,18688.06
2022-12-19T02:07:23.481Z,18698.22
2022-12-19T02:09:56.850Z,18641.34
2022-12-19T02:12:27.745Z,18679.94
2022-12-19T02:15:02.632Z,18692.13
2022-12-19T02:17:47.206Z,18704.31
2022-12-19T02:21:21.961Z,18722.63
2022-12-19T02:24:38.565Z,18747.00
2022-12-19T02:27:57.845Z,18716.53
2022-12-19T02:30:55.768Z,18708.41
2022-12-19T02:33:36.951Z,18708.41
2022-12-19T02:36:16.417Z,18777.47
2022-12-19T02:38:55.090Z,18777.47
2022-12-19T02:41:28.172Z,18759.19
2022-12-19T02:43:59.640Z,18724.66
2022-12-19T02:46:30.450Z,18753.09
2022-12-19T02:48:59.471Z,18767.31
2022-12-19T02:51:27.596Z,18761.22
2022-12-19T02:53:55.881Z,18789.66
2022-12-19T02:56:49.093Z,18789.66
2022-12-19T02:59:36.890Z,18807.94
2022-12-19T03:02:20.470Z,18816.06
2022-12-19T03:04:59.926Z,18842.50
2022-12-19T03:07:37.427Z,18840.47
2022-12-19T03:10:19.694Z,18828.28
2022-12-19T03:12:54.631Z,18860.78
2022-12-19T03:15:24.773Z,18850.63
2022-12-19T03:17:58.015Z,18822.19
2022-12-19T03:20:37.888Z,18864.84
2022-12-19T03:23:06.184Z,18836.41
2022-12-19T03:25:36.743Z,18862.81
2022-12-19T03:28:12.886Z,18864.84
2022-12-19T03:30:45.456Z,18824.22
2022-12-19T03:33:19.485Z,18858.75
2022-12-19T03:35:50.587Z,18814.03
2022-12-19T03:38:22.643Z,18844.53
2022-12-19T03:40:52.127Z,18844.53
2022-12-19T03:43:22.675Z,18840.47
2022-12-19T03:46:03.168Z,18834.38
2022-12-19T03:48:43.349Z,18818.09
2022-12-19T03:51:28.352Z,18824.22
2022-12-19T03:54:04.210Z,18870.94
2022-12-19T03:56:42.318Z,18850.63
2022-12-19T03:59:20.461Z,18822.19
2022-12-19T04:01:50.996Z,18830.31
2022-12-19T04:04:22.753Z,18875.00
2022-12-19T04:06:52.257Z,18834.38
2022-12-19T04:09:24.573Z,18866.88
2022-12-19T04:12:00.330Z,18848.59
2022-12-19T04:14:31.777Z,18816.06
2022-12-19T04:17:15.621Z,18840.47
2022-12-19T04:19:57.380Z,18834.38
2022-12-19T04:22:32.209Z,18812.00
2022-12-19T04:25:06.421Z,18850.63
2022-12-19T04:27:38.136Z,18812.00
2022-12-19T04:30:13.832Z,18840.47
2022-12-19T04:32:48.493Z,18858.75
2022-12-19T04:35:18.688Z,18826.25
2022-12-19T04:37:47.138Z,18832.34
2022-12-19T04:40:15.791Z,18824.22
2022-12-19T04:42:43.880Z,18814.03
2022-12-19T04:45:12.677Z,18834.38
2022-12-19T04:47:40.953Z,18842.50
2022-12-19T04:50:10.968Z,18809.97
2022-12-19T04:52:40.504Z,18818.09
2022-12-19T04:55:10.368Z,18838.44
2022-12-19T04:57:38.489Z,18807.94
2022-12-19T05:00:08.643Z,18840.47
2022-12-19T05:02:36.918Z,18809.97
2022-12-19T05:05:05.957Z,18816.06
2022-12-19T05:07:34.056Z,18818.09
2022-12-19T05:10:03.562Z,18809.97
2022-12-19T05:12:31.732Z,18834.38
2022-12-19T05:14:59.856Z,18826.25
2022-12-19T05:17:27.982Z,18816.06
2022-12-19T05:19:56.324Z,18848.59
2022-12-19T05:22:24.669Z,18807.94
2022-12-19T05:24:52.827Z,18838.44
2022-12-19T05:27:22.494Z,18842.50
2022-12-19T05:29:50.603Z,18824.22
2022-12-19T05:32:18.813Z,18858.75
2022-12-19T05:34:46.924Z,18844.53
2022-12-19T05:37:15.092Z,18850.63
2022-12-19T05:39:43.188Z,18836.41
2022-12-19T05:42:12.682Z,18842.50
2022-12-19T05:44:42.272Z,18814.03
2022-12-19T05:47:10.372Z,18858.75
2022-12-19T05:49:45.703Z,18824.22
2022-12-19T05:52:13.846Z,18850.63
2022-12-19T05:54:41.927Z,18852.66
2022-12-19T05:57:10.048Z,18848.59
2022-12-19T05:59:38.165Z,18856.72
2022-12-19T06:02:07.757Z,18805.91
2022-12-19T06:04:39.010Z,18854.69
2022-12-19T06:07:07.176Z,18848.59
2022-12-19T06:09:35.349Z,18826.25
2022-12-19T06:12:03.635Z,18836.41
2022-12-19T06:14:31.795Z,18862.81
2022-12-19T06:17:00.032Z,18830.31
2022-12-19T06:19:31.225Z,18818.09
2022-12-19T06:21:59.342Z,18838.44
2022-12-19T06:24:27.692Z,18834.38
2022-12-19T06:26:55.821Z,18866.88
2022-12-19T06:29:23.976Z,18848.59
2022-12-19T06:31:53.093Z,18830.31
2022-12-19T06:34:39.873Z,18818.09
2022-12-19T06:37:11.680Z,18834.38
2022-12-19T06:39:39.992Z,18842.50
2022-12-19T06:42:24.419Z,18838.44
2022-12-19T06:44:55.582Z,18799.81
2022-12-19T06:47:25.637Z,18883.13
2022-12-19T06:49:54.218Z,18830.31
2022-12-19T06:52:23.777Z,18836.41
2022-12-19T06:54:51.895Z,18836.41
2022-12-19T06:57:19.901Z,18830.31
2022-12-19T06:59:47.999Z,18803.88
2022-12-19T07:02:29.601Z,18814.03
2022-12-19T07:05:03.815Z,18789.66
2022-12-19T07:07:34.530Z,18801.84
2022-12-19T07:10:02.815Z,18844.53
2022-12-19T07:12:30.898Z,18866.88
2022-12-19T07:14:59.206Z,18854.69
2022-12-19T07:17:29.638Z,18838.44
2022-12-19T07:19:59.291Z,18854.69
2022-12-19T07:22:35.383Z,18834.38
2022-12-19T07:25:06.291Z,18846.56
2022-12-19T07:27:36.142Z,18844.53
2022-12-19T07:30:06.743Z,18842.50
2022-12-19T07:32:35.319Z,18862.81
2022-12-19T07:35:03.701Z,18834.38
2022-12-19T07:37:33.176Z,18868.91
2022-12-19T07:40:01.315Z,18883.13
2022-12-19T07:42:32.689Z,18850.63
2022-12-19T07:45:01.409Z,18866.88
2022-12-19T07:47:29.613Z,18868.91
2022-12-19T07:49:57.718Z,18840.47
2022-12-19T07:52:26.494Z,18872.97
2022-12-19T07:54:55.988Z,18858.75
2022-12-19T07:57:24.042Z,18846.56
2022-12-19T07:59:52.126Z,18895.31
2022-12-19T08:02:20.319Z,18838.44
2022-12-19T08:04:48.387Z,18826.25
2022-12-19T08:07:16.480Z,18887.19
2022-12-19T08:09:44.591Z,18877.03
2022-12-19T08:12:14.040Z,18887.19
2022-12-19T08:14:42.090Z,18872.97
2022-12-19T08:17:20.125Z,18893.28
2022-12-19T08:19:48.624Z,18879.06
2022-12-19T08:22:16.693Z,18864.84
2022-12-19T08:24:44.866Z,18866.88
2022-12-19T08:27:14.354Z,18917.66
2022-12-19T08:29:42.424Z,18901.41
2022-12-19T08:32:13.367Z,18897.34
2022-12-19T08:34:45.742Z,18875.00
2022-12-19T08:37:13.802Z,18907.50
2022-12-19T08:39:41.862Z,18903.44
2022-12-19T08:42:09.901Z,18909.53
2022-12-19T08:44:39.378Z,18870.94
2022-12-19T08:47:07.464Z,18899.38
2022-12-19T08:49:35.752Z,18895.31
2022-12-19T08:52:03.905Z,18903.44
2022-12-19T08:54:31.980Z,18895.31
2022-12-19T08:57:00.096Z,18899.38
2022-12-19T08:59:30.867Z,18860.78
2022-12-19T09:02:01.910Z,18842.50
2022-12-19T09:06:02.336Z,18879.06
2022-12-19T09:07:19.035Z,18858.75
2022-12-19T09:09:47.157Z,18856.72
2022-12-19T09:12:17.494Z,18846.56
2022-12-19T09:14:45.781Z,18846.56
2022-12-19T09:17:15.468Z,18816.06
2022-12-19T09:19:45.525Z,18781.53
2022-12-19T09:22:17.499Z,18840.47
2022-12-19T09:24:45.558Z,18844.53
2022-12-19T09:27:14.243Z,18789.66
2022-12-19T09:29:43.837Z,18826.25
2022-12-19T09:32:12.374Z,18809.97
2022-12-19T09:34:41.861Z,18785.59
2022-12-19T09:37:16.812Z,18769.34
2022-12-19T09:39:47.217Z,18775.44
2022-12-19T09:43:01.147Z,18812.00
2022-12-19T09:45:49.906Z,18789.66
2022-12-19T09:48:24.751Z,18791.69
2022-12-19T09:51:10.312Z,18777.47
2022-12-19T09:53:58.579Z,18742.94
2022-12-19T09:56:45.235Z,18779.50
2022-12-19T09:59:23.332Z,18769.34
2022-12-19T10:02:05.831Z,18749.03
2022-12-19T10:04:37.440Z,18744.97
2022-12-19T10:07:31.409Z,18740.91
2022-12-19T10:12:46.089Z,18728.72
2022-12-19T10:13:13.664Z,18710.44
2022-12-19T10:16:00.230Z,18708.41
2022-12-19T10:18:44.289Z,18681.97
2022-12-19T10:21:58.841Z,18659.63
2022-12-19T10:25:08.121Z,18651.50
2022-12-19T10:27:59.888Z,18675.88
2022-12-19T10:30:34.142Z,18621.03
2022-12-19T10:33:20.218Z,18649.47
2022-12-19T10:35:55.620Z,18675.88
2022-12-19T10:38:38.380Z,18643.38
2022-12-19T10:41:23.333Z,18665.72
2022-12-19T10:44:03.150Z,18631.19
2022-12-19T10:46:40.746Z,18651.50
2022-12-19T10:49:16.629Z,18633.22
2022-12-19T10:51:59.879Z,18625.09
2022-12-19T10:54:39.711Z,18627.13
2022-12-19T10:57:26.320Z,18657.59
2022-12-19T11:00:00.117Z,18616.97
2022-12-19T11:02:44.587Z,18596.66
2022-12-19T11:05:27.348Z,18594.63
2022-12-19T11:08:04.992Z,18612.91
2022-12-19T11:11:14.377Z,18610.88
2022-12-19T11:20:46.985Z,18623.06
2022-12-19T11:24:54.590Z,18608.84
2022-12-19T11:29:25.596Z,18610.88
2022-12-19T11:29:30.188Z,18627.13
2022-12-19T11:30:36.678Z,18639.31
2022-12-19T11:30:49.025Z,18635.25
2022-12-19T11:32:31.471Z,18633.22
2022-12-19T11:34:17.768Z,18580.41
2022-12-19T11:36:53.272Z,18594.63
2022-12-19T11:39:30.559Z,18594.63
2022-12-19T11:42:09.813Z,18576.31
2022-12-19T11:44:48.550Z,18610.88
2022-12-19T11:47:33.533Z,18588.53
2022-12-19T11:50:11.138Z,18602.75
2022-12-19T11:53:14.662Z,18627.13
2022-12-19T11:55:46.135Z,18604.78
2022-12-19T11:58:15.071Z,18610.88
2022-12-19T12:00:55.305Z,18612.91
2022-12-19T12:04:11.970Z,18578.38
2022-12-19T12:06:54.259Z,18588.53
2022-12-19T12:12:49.142Z,18578.38
2022-12-19T12:19:55.589Z,18592.59
2022-12-19T12:25:27.663Z,18566.16
2022-12-19T12:31:07.646Z,18545.84
2022-12-19T12:31:13.160Z,18576.31
2022-12-19T12:31:46.929Z,18586.50
2022-12-19T12:32:06.314Z,18570.22
2022-12-19T12:35:31.722Z,18562.09
2022-12-19T12:41:00.533Z,18590.56
2022-12-19T12:43:55.797Z,18604.78
2022-12-19T12:46:32.156Z,18602.75
2022-12-19T12:49:05.143Z,18586.50
2022-12-19T12:51:36.858Z,18560.06
2022-12-19T12:54:12.619Z,18562.09
2022-12-19T12:56:42.271Z,18594.63
2022-12-19T12:59:26.874Z,18549.91
2022-12-19T13:01:59.868Z,18566.16
2022-12-19T13:04:35.817Z,18537.72
2022-12-19T13:07:21.675Z,18527.56
2022-12-19T13:10:08.096Z,18537.72
2022-12-19T13:13:02.495Z,18580.41
2022-12-19T13:15:48.387Z,18560.06
2022-12-19T13:18:38.645Z,18600.72
2022-12-19T13:21:10.635Z,18545.84
2022-12-19T13:23:49.851Z,18582.44
2022-12-19T13:26:49.471Z,18533.66
2022-12-19T13:29:57.082Z,18562.09
2022-12-19T13:32:25.235Z,18584.47
2022-12-19T13:35:03.987Z,18606.81
2022-12-19T13:39:55.431Z,18578.38
2022-12-19T13:41:01.411Z,18537.72
2022-12-19T13:43:46.344Z,18570.22
2022-12-19T13:46:33.715Z,18533.66
2022-12-19T13:49:07.914Z,18580.41
2022-12-19T13:51:47.455Z,18594.63
2022-12-19T13:54:26.967Z,18576.31
2022-12-19T13:56:57.141Z,18570.22
2022-12-19T13:59:32.198Z,18545.84
2022-12-19T14:02:16.184Z,18582.44
2022-12-19T14:04:46.562Z,18562.09
2022-12-19T14:07:36.598Z,18549.91
2022-12-19T14:11:35.013Z,18570.22
2022-12-19T14:13:48.459Z,18556.00
2022-12-19T14:16:07.975Z,18547.88
2022-12-19T14:18:43.290Z,18543.81
2022-12-19T14:22:11.515Z,18566.16
2022-12-19T14:24:19.868Z,18568.19
2022-12-19T14:28:24.714Z,18580.41
2022-12-19T14:30:28.171Z,18549.91
2022-12-19T14:33:46.563Z,18529.59
2022-12-19T14:36:08.840Z,18558.03
2022-12-19T14:39:26.346Z,18588.53
2022-12-19T14:42:01.009Z,18572.25
2022-12-19T14:54:06.296Z,18527.56
2022-12-19T14:54:10.123Z,18551.94
2022-12-19T14:54:16.121Z,18570.22
2022-12-19T14:54:40.850Z,18564.13
2022-12-19T14:56:46.749Z,18535.69
2022-12-19T14:59:06.579Z,18549.91
2022-12-19T15:01:36.923Z,18562.09
2022-12-19T15:04:52.414Z,18553.97
2022-12-19T15:07:12.136Z,18529.59
2022-12-19T15:10:58.022Z,18562.09
2022-12-19T15:14:49.362Z,18521.47
2022-12-19T15:16:07.898Z,18566.16
2022-12-19T15:18:42.287Z,18523.50
2022-12-19T15:21:14.582Z,18543.81
2022-12-19T15:23:45.764Z,18541.78
2022-12-19T15:26:18.062Z,18566.16
2022-12-19T15:28:50.074Z,18545.84
2022-12-19T15:31:34.662Z,18566.16
2022-12-19T15:34:34.965Z,18590.56
2022-12-19T15:37:04.265Z,18553.97
2022-12-19T15:39:33.870Z,18566.16
2022-12-19T15:42:02.938Z,18553.97
2022-12-19T15:44:35.836Z,18553.97
2022-12-19T15:47:07.045Z,18519.44
2022-12-19T15:49:35.988Z,18562.09
2022-12-19T15:52:04.122Z,18523.50
2022-12-19T15:54:50.552Z,18529.59
2022-12-19T15:57:30.055Z,18537.72
2022-12-19T16:00:01.395Z,18545.84
2022-12-19T16:03:04.472Z,18586.50
2022-12-19T16:05:23.513Z,18527.56
2022-12-19T16:07:51.998Z,18529.59
2022-12-19T16:10:21.841Z,18553.97
2022-12-19T16:12:53.878Z,18527.56
2022-12-19T16:15:27.546Z,18511.31
2022-12-19T16:17:57.279Z,18558.03
2022-12-19T16:20:28.486Z,18513.34
2022-12-19T16:22:56.959Z,18562.09
2022-12-19T16:25:35.879Z,18497.09
2022-12-19T16:28:06.344Z,18511.31
2022-12-19T16:30:35.930Z,18511.31
2022-12-19T16:33:04.152Z,18519.44
2022-12-19T16:36:03.063Z,18507.25
2022-12-19T16:38:20.884Z,18501.16
2022-12-19T16:40:52.360Z,18523.50
2022-12-19T16:43:30.983Z,18505.22
2022-12-19T16:46:01.819Z,18513.34
2022-12-19T16:48:31.230Z,18505.22
2022-12-19T16:51:00.663Z,18529.59
2022-12-19T16:53:29.240Z,18505.22
2022-12-19T16:56:00.880Z,18511.31
2022-12-19T16:58:30.516Z,18547.88
2022-12-19T17:00:58.882Z,18501.16
2022-12-19T17:03:36.828Z,18531.63
2022-12-19T17:06:05.650Z,18517.41
2022-12-19T17:08:34.239Z,18480.84
2022-12-19T17:11:03.869Z,18574.28
2022-12-19T17:13:32.202Z,18553.97
2022-12-19T17:16:01.486Z,18523.50
2022-12-19T17:18:34.115Z,18507.25
2022-12-19T17:21:02.606Z,18517.41
2022-12-19T17:23:32.488Z,18529.59
2022-12-19T17:26:01.267Z,18539.75
2022-12-19T17:28:30.899Z,18539.75
2022-12-19T17:31:03.461Z,18553.97
2022-12-19T17:33:37.611Z,18523.50
2022-12-19T17:36:08.246Z,18505.22
2022-12-19T17:38:37.023Z,18486.94
2022-12-19T17:41:05.121Z,18558.03
2022-12-19T17:43:34.696Z,18529.59
2022-12-19T17:46:06.135Z,18515.38
2022-12-19T17:48:35.000Z,18519.44
2022-12-19T17:51:04.418Z,18584.47
2022-12-19T17:53:32.518Z,18543.81
2022-12-19T17:56:00.540Z,18553.97
2022-12-19T17:58:29.785Z,18523.50
2022-12-19T18:00:59.925Z,18547.88
2022-12-19T18:03:28.432Z,18547.88
2022-12-19T18:05:59.024Z,18568.19
2022-12-19T18:08:29.867Z,18558.03
2022-12-19T18:11:01.790Z,18545.84
2022-12-19T18:13:32.154Z,18572.25
2022-12-19T18:16:04.058Z,18556.00
2022-12-19T18:18:36.987Z,18551.94
2022-12-19T18:21:05.826Z,18582.44
2022-12-19T18:23:34.431Z,18570.22
2022-12-19T18:26:03.068Z,18574.28
2022-12-19T18:28:31.744Z,18549.91
2022-12-19T18:31:05.120Z,18566.16
2022-12-19T18:33:39.421Z,18558.03
2022-12-19T18:36:15.976Z,18570.22
2022-12-19T18:38:44.018Z,18566.16
2022-12-19T18:41:13.465Z,18570.22
2022-12-19T18:43:41.612Z,18560.06
2022-12-19T18:46:15.685Z,18590.56
2022-12-19T18:48:46.090Z,18551.94
2022-12-19T18:51:18.103Z,18562.09
2022-12-19T18:53:48.790Z,18578.38
2022-12-19T18:56:17.114Z,18578.38
2022-12-19T18:58:45.213Z,18602.75
2022-12-19T19:01:18.692Z,18596.66
2022-12-19T19:03:54.853Z,18578.38
2022-12-19T19:06:26.641Z,18556.00
2022-12-19T19:08:56.718Z,18619.00
2022-12-19T19:11:25.981Z,18612.91
2022-12-19T19:13:54.660Z,18574.28
2022-12-19T19:16:26.999Z,18564.13
2022-12-19T19:18:59.467Z,18606.81
2022-12-19T19:21:33.341Z,18608.84
2022-12-19T19:24:08.898Z,18635.25
2022-12-19T19:26:37.104Z,18590.56
2022-12-19T19:29:06.762Z,18612.91
2022-12-19T19:31:41.807Z,18586.50
2022-12-19T19:34:14.938Z,18592.59
2022-12-19T19:36:49.381Z,18614.94
2022-12-19T19:39:19.731Z,18627.13
2022-12-19T19:41:47.874Z,18619.00
2022-12-19T19:44:16.064Z,18610.88
2022-12-19T19:46:46.105Z,18608.84
2022-12-19T19:49:14.375Z,18602.75
2022-12-19T19:51:42.794Z,18598.69
2022-12-19T19:54:10.908Z,18625.09
2022-12-19T19:56:39.322Z,18616.97
2022-12-19T19:59:07.729Z,18592.59
2022-12-19T20:01:36.005Z,18606.81
2022-12-19T20:04:06.141Z,18647.44
2022-12-19T20:06:34.915Z,18631.19
2022-12-19T20:09:03.061Z,18619.00
2022-12-19T20:11:31.538Z,18608.84
2022-12-19T20:13:59.705Z,18631.19
2022-12-19T20:16:28.059Z,18635.25
2022-12-19T20:18:56.272Z,18665.72
2022-12-19T20:21:25.770Z,18643.38
2022-12-19T20:23:54.260Z,18637.28
2022-12-19T20:26:22.454Z,18621.03
2022-12-19T20:28:52.272Z,18631.19
2022-12-19T20:31:23.529Z,18659.63
2022-12-19T20:33:53.077Z,18673.84
2022-12-19T20:36:21.666Z,18639.31
2022-12-19T20:38:51.673Z,18631.19
2022-12-19T20:41:20.255Z,18643.38
2022-12-19T20:43:49.366Z,18639.31
2022-12-19T20:46:20.110Z,18655.56
2022-12-19T20:48:50.122Z,18647.44
2022-12-19T20:51:20.891Z,18675.88
2022-12-19T20:53:53.985Z,18688.06
2022-12-19T20:56:25.768Z,18690.09
2022-12-19T20:58:53.998Z,18673.84
2022-12-19T21:01:25.384Z,18679.94
2022-12-19T21:03:54.388Z,18684.00
2022-12-19T21:06:25.295Z,18651.50
2022-12-19T21:08:55.503Z,18655.56
2022-12-19T21:11:26.136Z,18681.97
2022-12-19T21:13:54.635Z,18675.88
2022-12-19T21:16:24.951Z,18675.88
2022-12-19T21:18:53.374Z,18639.31
2022-12-19T21:21:25.251Z,18614.94
2022-12-19T21:23:56.337Z,18625.09
2022-12-19T21:26:26.579Z,18645.41
2022-12-19T21:28:57.749Z,18653.53
2022-12-19T21:31:29.646Z,18659.63
2022-12-19T21:34:00.311Z,18649.47
2022-12-19T21:36:30.260Z,18653.53
2022-12-19T21:39:02.498Z,18639.31
2022-12-19T21:41:31.291Z,18675.88
2022-12-19T21:44:00.602Z,18700.25
2022-12-19T21:46:32.985Z,18661.66
2022-12-19T21:49:02.880Z,18679.94
2022-12-19T21:51:32.921Z,18657.59
2022-12-19T21:54:04.938Z,18667.75
2022-12-19T21:56:36.605Z,18657.59
2022-12-19T21:59:08.901Z,18651.50
2022-12-19T22:01:37.254Z,18659.63
2022-12-19T22:04:08.176Z,18667.75
2022-12-19T22:06:38.585Z,18657.59
2022-12-19T22:09:13.366Z,18665.72
2022-12-19T22:11:41.837Z,18673.84
2022-12-19T22:14:13.855Z,18631.19
2022-12-19T22:16:42.789Z,18655.56
2022-12-19T22:19:15.517Z,18631.19
2022-12-19T22:21:44.149Z,18692.13
2022-12-19T22:24:16.173Z,18667.75
2022-12-19T22:26:45.011Z,18690.09
2022-12-19T22:29:17.584Z,18675.88
2022-12-19T22:31:46.888Z,18681.97
2022-12-19T22:34:18.118Z,18653.53
2022-12-19T22:36:47.686Z,18694.16
2022-12-19T22:39:20.015Z,18704.31
2022-12-19T22:41:48.495Z,18669.78
2022-12-19T22:44:19.400Z,18690.09
2022-12-19T22:46:48.275Z,18696.19
2022-12-19T22:49:16.859Z,18684.00
2022-12-19T22:51:45.572Z,18724.66
2022-12-19T22:54:16.133Z,18712.47
2022-12-19T22:56:44.370Z,18716.53
2022-12-19T22:59:13.496Z,18653.53
2022-12-19T23:01:44.195Z,18671.81
2022-12-19T23:04:16.421Z,18694.16
2022-12-19T23:06:45.589Z,18688.06
2022-12-19T23:09:18.082Z,18710.44
2022-12-19T23:11:49.576Z,18688.06
2022-12-19T23:14:19.954Z,18669.78
2022-12-19T23:16:49.501Z,18704.31
2022-12-19T23:19:18.919Z,18738.88
2022-12-19T23:21:47.666Z,18686.03
2022-12-19T23:24:17.174Z,18667.75
2022-12-19T23:26:45.435Z,18643.38
2022-12-19T23:29:16.312Z,18643.38
2022-12-19T23:31:47.472Z,18677.91
2022-12-19T23:34:16.880Z,18679.94
2022-12-19T23:37:10.247Z,18657.59
2022-12-19T23:39:34.941Z,18657.59
2022-12-19T23:42:03.112Z,18700.25
2022-12-19T23:44:31.479Z,18712.47
2022-12-19T23:47:03.431Z,18696.19
2022-12-19T23:49:32.553Z,18694.16
2022-12-19T23:52:00.732Z,18679.94
2022-12-19T23:54:29.336Z,18708.41
2022-12-19T23:56:58.911Z,18728.72
2022-12-19T23:59:27.036Z,18730.75
